Time;durP1;ratioP1;P1;durP2;ratioP2;P2;SDS_P1;SDS_P2;PMS_P1;PMS_P2;Temp;Humidity;BMP_temperature;BMP_pressure;BME280_temperature;BME280_humidity;BME280_pressure;Samples;Min_cycle;Max_cycle;Signal;HPM_P1;HPM_P2
2023/10/08 00:00:53;;;;;;;0.40;0.20;;;;;;;17.24;94.64;100989.28;4971509;28;20540;-51
2023/10/08 00:03:22;;;;;;;0.40;0.20;;;;;;;17.15;95.13;100985.22;4994134;28;20924;-51
2023/10/08 00:05:49;;;;;;;0.40;0.20;;;;;;;17.11;95.75;100983.59;4993983;28;20863;-51
2023/10/08 00:08:16;;;;;;;0.40;0.20;;;;;;;17.12;95.15;100998.78;4993702;28;20512;-52
2023/10/08 00:10:44;;;;;;;0.40;0.20;;;;;;;17.05;95.77;101009.88;4975713;28;20960;-51
2023/10/08 00:13:12;;;;;;;0.40;0.20;;;;;;;17.13;95.42;101005.00;4977389;28;20432;-52
2023/10/08 00:15:58;;;;;;;0.40;0.20;;;;;;;17.11;95.36;100996.16;4984904;28;20460;-51
2023/10/08 00:18:24;;;;;;;0.40;0.20;;;;;;;17.04;96.09;101002.75;4985298;28;20448;-51
2023/10/08 00:23:41;;;;;;;0.40;0.20;;;;;;;16.96;96.46;101000.38;4971544;28;20420;-52
2023/10/08 00:26:08;;;;;;;0.40;0.20;;;;;;;16.82;96.88;100995.63;4993652;28;20445;-51
2023/10/08 00:28:35;;;;;;;0.40;0.20;;;;;;;16.75;97.09;100996.84;4993578;28;20444;-51
2023/10/08 00:31:12;;;;;;;0.40;0.20;;;;;;;16.86;97.53;101004.44;4988591;28;20459;-52
2023/10/08 00:33:44;;;;;;;0.40;0.20;;;;;;;16.82;97.05;101006.34;4993510;28;20910;-51
2023/10/08 00:36:20;;;;;;;0.40;0.20;;;;;;;16.62;97.71;100994.69;4993413;28;20542;-51
2023/10/08 00:38:51;;;;;;;0.40;0.20;;;;;;;16.55;98.25;100989.56;4993347;28;20439;-51
2023/10/08 00:41:21;;;;;;;0.40;0.20;;;;;;;16.54;98.46;101003.94;4993382;28;20452;-51
2023/10/08 00:43:50;;;;;;;0.40;0.20;;;;;;;16.48;98.47;100995.28;4989281;28;20534;-51
2023/10/08 00:46:23;;;;;;;0.40;0.20;;;;;;;16.56;98.14;100995.81;4993202;28;20535;-49
2023/10/08 00:48:55;;;;;;;0.40;0.20;;;;;;;16.56;98.54;100988.63;4993158;28;20490;-50
2023/10/08 00:53:57;;;;;;;0.40;0.20;;;;;;;16.56;98.54;100977.91;4993058;28;20936;-50
2023/10/08 00:59:15;;;;;;;0.40;0.20;;;;;;;16.63;98.49;100980.34;4990316;28;20556;-50
2023/10/08 01:01:51;;;;;;;0.40;0.20;;;;;;;16.44;98.77;100983.78;4993130;28;20539;-51
2023/10/08 01:04:23;;;;;;;0.40;0.20;;;;;;;16.36;99.47;100982.38;4993112;28;20420;-51
2023/10/08 01:06:55;;;;;;;0.40;0.20;;;;;;;16.27;99.50;100979.09;4993433;28;20840;-51
2023/10/08 01:09:31;;;;;;;0.40;0.20;;;;;;;16.24;99.99;100983.75;4993140;28;20478;-51
2023/10/08 01:15:23;;;;;;;0.40;0.20;;;;;;;16.15;99.95;100986.78;4958875;28;20423;-51
2023/10/08 01:17:49;;;;;;;0.40;0.20;;;;;;;16.18;99.90;100984.00;4985592;28;20939;-51
2023/10/08 01:20:33;;;;;;;0.40;0.20;;;;;;;16.17;99.45;100976.84;4993072;28;20511;-51
2023/10/08 01:23:19;;;;;;;0.40;0.20;;;;;;;16.14;99.41;100972.50;4993097;28;20528;-51
2023/10/08 01:26:33;;;;;;;0.40;0.20;;;;;;;16.03;99.97;100964.00;4992956;28;20809;-50
2023/10/08 01:28:34;;;;;;;0.40;0.30;;;;;;;16.02;100.00;100956.03;4966567;28;20822;-51
2023/10/08 01:31:03;;;;;;;0.40;0.20;;;;;;;16.04;100.00;100951.50;4992907;28;20890;-51
2023/10/08 01:33:46;;;;;;;0.40;0.20;;;;;;;15.95;100.00;100955.41;4992929;28;20989;-51
2023/10/08 01:36:13;;;;;;;0.40;0.20;;;;;;;15.85;100.00;100944.16;4992679;28;20463;-50
2023/10/08 01:38:41;;;;;;;0.40;0.20;;;;;;;15.88;100.00;100951.22;4992907;28;20448;-50
2023/10/08 01:41:28;;;;;;;0.40;0.20;;;;;;;15.69;100.00;100954.63;4988213;28;20940;-52
2023/10/08 01:43:55;;;;;;;0.40;0.20;;;;;;;15.45;100.00;100952.84;4987781;28;20455;-51
2023/10/08 01:46:22;;;;;;;0.40;0.20;;;;;;;15.68;100.00;100952.88;4981490;28;20428;-51
2023/10/08 01:48:53;;;;;;;0.40;0.20;;;;;;;15.75;100.00;100953.50;4992698;28;20455;-51
2023/10/08 01:51:28;;;;;;;0.40;0.20;;;;;;;15.69;100.00;100949.28;4992880;28;20481;-51
2023/10/08 01:53:58;;;;;;;0.40;0.20;;;;;;;15.80;100.00;100950.66;4990038;28;20849;-51
2023/10/08 01:56:25;;;;;;;0.40;0.20;;;;;;;15.78;100.00;100949.84;4985560;28;20555;-51
2023/10/08 01:58:51;;;;;;;1.17;1.17;;;;;;;15.72;100.00;100945.59;4992854;28;20799;-51
2023/10/08 02:01:21;;;;;;;0.40;0.20;;;;;;;15.73;100.00;100938.44;4992727;28;20460;-51
2023/10/08 02:03:48;;;;;;;0.40;0.20;;;;;;;15.50;100.00;100942.84;4968789;28;20456;-51
2023/10/08 02:06:15;;;;;;;0.40;0.20;;;;;;;15.27;100.00;100957.09;4992991;28;20520;-51
2023/10/08 02:08:42;;;;;;;0.40;0.20;;;;;;;15.40;100.00;100960.22;4986178;28;20484;-51
2023/10/08 02:11:08;;;;;;;0.40;0.20;;;;;;;15.68;100.00;100960.06;4980192;28;20446;-51
2023/10/08 02:13:35;;;;;;;0.40;0.20;;;;;;;15.96;100.00;100962.53;4979463;28;20434;-51
2023/10/08 02:16:01;;;;;;;1.60;1.50;;;;;;;16.16;99.38;100961.69;4985776;28;21015;-51
2023/10/08 02:18:29;;;;;;;0.40;0.20;;;;;;;16.31;98.91;100977.19;4985319;28;20488;-52
2023/10/08 02:20:56;;;;;;;0.40;0.20;;;;;;;16.17;98.36;100971.50;4993069;28;20520;-51
2023/10/08 02:23:22;;;;;;;0.40;0.20;;;;;;;15.99;99.20;100965.94;4983412;28;20432;-52
2023/10/08 02:25:49;;;;;;;0.40;0.20;;;;;;;15.95;99.25;100966.13;4996231;28;20457;-51
2023/10/08 02:28:16;;;;;;;0.40;0.20;;;;;;;15.92;99.38;100966.28;4996224;28;20474;-50
2023/10/08 02:30:43;;;;;;;0.40;0.20;;;;;;;15.70;100.00;100963.53;4995946;28;20488;-50
2023/10/08 02:33:15;;;;;;;0.40;0.20;;;;;;;15.56;100.00;100969.41;4996194;28;20484;-50
2023/10/08 02:35:44;;;;;;;0.40;0.20;;;;;;;15.29;100.00;100970.44;4995720;28;20445;-50
2023/10/08 02:38:16;;;;;;;0.40;0.20;;;;;;;15.14;100.00;100966.53;4980963;28;21031;-50
2023/10/08 02:40:47;;;;;;;0.40;0.20;;;;;;;15.26;100.00;100965.22;4995815;28;21065;-50
2023/10/08 02:43:15;;;;;;;0.40;0.20;;;;;;;15.15;100.00;100967.41;4982940;28;20461;-50
2023/10/08 02:45:47;;;;;;;0.40;0.20;;;;;;;14.86;100.00;100971.13;4995218;28;20870;-50
2023/10/08 02:48:13;;;;;;;0.40;0.20;;;;;;;14.77;100.00;100964.28;4995477;28;20562;-50
2023/10/08 02:50:40;;;;;;;0.40;0.20;;;;;;;14.94;100.00;100966.34;4987677;28;21027;-50
2023/10/08 02:53:10;;;;;;;0.40;0.20;;;;;;;14.89;100.00;100960.31;4995634;28;20453;-50
2023/10/08 02:55:44;;;;;;;0.40;0.20;;;;;;;14.91;100.00;100956.63;4995400;28;20457;-50
2023/10/08 02:58:14;;;;;;;0.40;0.20;;;;;;;14.77;100.00;100949.09;4995316;28;20528;-51
2023/10/08 03:00:42;;;;;;;0.40;0.20;;;;;;;14.81;100.00;100952.56;4995303;28;20453;-50
2023/10/08 03:03:15;;;;;;;0.40;0.20;;;;;;;14.78;100.00;100948.16;4995479;28;20517;-50
2023/10/08 03:05:51;;;;;;;0.40;0.20;;;;;;;14.60;100.00;100946.16;4989561;28;20541;-50
2023/10/08 03:08:22;;;;;;;0.40;0.20;;;;;;;14.59;100.00;100943.53;4995301;28;20459;-50
2023/10/08 03:11:02;;;;;;;0.40;0.20;;;;;;;14.42;100.00;100941.41;4985524;28;20452;-51
2023/10/08 03:13:29;;;;;;;0.40;0.20;;;;;;;14.38;100.00;100937.94;4981338;28;20477;-50
2023/10/08 03:18:42;;;;;;;0.40;0.20;;;;;;;14.39;100.00;100933.44;4987435;28;20481;-50
2023/10/08 03:21:21;;;;;;;0.40;0.20;;;;;;;14.23;100.00;100947.34;4995149;28;20453;-50
2023/10/08 03:23:51;;;;;;;0.40;0.20;;;;;;;14.22;100.00;100947.41;4995068;28;20980;-50
2023/10/08 03:28:58;;;;;;;0.40;0.20;;;;;;;14.32;100.00;100954.19;4995280;28;20520;-51
2023/10/08 03:34:34;;;;;;;0.40;0.20;;;;;;;14.23;100.00;100962.50;4934817;29;20484;-51
2023/10/08 03:37:06;;;;;;;0.40;0.30;;;;;;;14.20;100.00;100971.50;4933915;29;20488;-50
2023/10/08 03:39:50;;;;;;;0.40;0.20;;;;;;;14.43;100.00;100976.13;4965441;28;20540;-51
2023/10/08 03:42:25;;;;;;;0.40;0.20;;;;;;;14.44;100.00;100977.03;4994658;28;20544;-51
2023/10/08 03:44:53;;;;;;;0.40;0.20;;;;;;;14.51;100.00;100982.09;4992227;28;20494;-50
2023/10/08 03:47:22;;;;;;;0.40;0.20;;;;;;;14.70;100.00;100981.50;4994569;28;20459;-51
2023/10/08 03:49:50;;;;;;;0.40;0.20;;;;;;;14.76;100.00;100987.50;4994693;28;20464;-51
2023/10/08 03:52:23;;;;;;;0.40;0.20;;;;;;;14.74;100.00;100985.81;4994423;28;20465;-50
2023/10/08 03:55:04;;;;;;;0.40;0.20;;;;;;;14.57;100.00;100981.03;4994380;28;20815;-51
2023/10/08 03:57:41;;;;;;;0.40;0.20;;;;;;;14.69;100.00;100982.44;4986421;28;20991;-51
2023/10/08 04:00:13;;;;;;;0.40;0.20;;;;;;;14.65;100.00;100996.81;4994338;28;20515;-51
2023/10/08 04:02:41;;;;;;;0.40;0.20;;;;;;;14.51;100.00;100992.81;4994444;28;20460;-51
2023/10/08 04:05:19;;;;;;;0.40;0.20;;;;;;;14.44;100.00;100991.28;4994109;28;20449;-50
2023/10/08 04:13:08;;;;;;;0.40;0.20;;;;;;;14.48;100.00;101008.97;4972472;28;20501;-51
2023/10/08 04:15:42;;;;;;;0.40;0.20;;;;;;;14.49;100.00;101002.69;4987445;28;20420;-50
2023/10/08 04:18:10;;;;;;;0.40;0.20;;;;;;;14.41;100.00;101009.19;4986853;28;20584;-51
2023/10/08 04:23:20;;;;;;;0.40;0.20;;;;;;;14.40;100.00;101005.66;4993917;28;20483;-51
2023/10/08 04:25:53;;;;;;;0.40;0.20;;;;;;;14.33;100.00;100996.06;4989171;28;20466;-50
2023/10/08 04:28:21;;;;;;;0.40;0.20;;;;;;;14.14;100.00;100995.78;4993624;28;20557;-50
2023/10/08 04:30:47;;;;;;;0.40;0.20;;;;;;;14.17;100.00;100995.69;4993755;28;20518;-50
2023/10/08 04:33:14;;;;;;;0.40;0.20;;;;;;;14.18;100.00;101000.09;4993869;28;20450;-50
2023/10/08 04:35:55;;;;;;;0.40;0.20;;;;;;;14.13;100.00;100982.47;4993701;28;20971;-50
2023/10/08 04:38:28;;;;;;;0.40;0.20;;;;;;;13.94;100.00;100985.72;4991900;28;20568;-50
2023/10/08 04:41:01;;;;;;;0.40;0.20;;;;;;;13.92;100.00;100987.56;4991625;28;20560;-50
2023/10/08 04:43:27;;;;;;;0.40;0.20;;;;;;;13.90;100.00;100984.06;4993618;28;20512;-50
2023/10/08 04:45:56;;;;;;;0.40;0.20;;;;;;;13.86;100.00;100985.09;4993250;28;20420;-50
2023/10/08 04:48:31;;;;;;;0.40;0.20;;;;;;;13.79;100.00;101001.34;4976616;28;20475;-50
2023/10/08 04:50:59;;;;;;;0.40;0.20;;;;;;;13.93;100.00;101002.69;4993335;28;20448;-52
2023/10/08 04:53:31;;;;;;;0.40;0.20;;;;;;;14.20;100.00;101005.41;4984828;28;20981;-51
2023/10/08 04:56:05;;;;;;;0.40;0.20;;;;;;;14.43;100.00;101010.91;4981886;28;20456;-51
2023/10/08 04:58:46;;;;;;;0.40;0.20;;;;;;;14.19;100.00;101001.84;4974997;28;20502;-51
2023/10/08 05:01:17;;;;;;;0.40;0.20;;;;;;;14.25;100.00;101003.44;4993377;28;20532;-51
2023/10/08 05:03:55;;;;;;;0.40;0.20;;;;;;;14.42;100.00;101009.16;4992910;28;20967;-51
2023/10/08 05:14:27;;;;;;;0.40;0.20;;;;;;;14.54;100.00;101023.09;4979926;28;20980;-51
2023/10/08 05:17:03;;;;;;;0.40;0.20;;;;;;;14.60;100.00;101022.88;4966772;28;20540;-51
2023/10/08 05:19:56;;;;;;;0.40;0.20;;;;;;;14.59;100.00;101022.00;4988296;28;20469;-51
2023/10/08 05:30:38;;;;;;;0.40;0.20;;;;;;;14.45;100.00;101013.53;4982952;28;20485;-51
2023/10/08 05:33:08;;;;;;;0.40;0.20;;;;;;;14.58;100.00;101014.03;4992952;28;20461;-51
2023/10/08 05:38:15;;;;;;;0.40;0.20;;;;;;;14.55;100.00;101023.03;4992771;28;20580;-51
2023/10/08 05:49:15;;;;;;;0.40;0.20;;;;;;;14.49;100.00;101021.41;4972903;28;20851;-51
2023/10/08 05:57:07;;;;;;;1.13;1.13;;;;;;;14.67;100.00;101011.03;4983568;28;20534;-50
2023/10/08 06:07:48;;;;;;;0.40;0.20;;;;;;;14.81;100.00;100998.06;4946947;29;20446;-51
2023/10/08 06:13:16;;;;;;;0.40;0.20;;;;;;;14.83;100.00;101017.63;4954533;28;20462;-51
2023/10/08 06:15:48;;;;;;;0.40;0.20;;;;;;;14.82;100.00;101016.75;4979080;28;20463;-51
2023/10/08 06:18:17;;;;;;;0.40;0.20;;;;;;;14.88;100.00;101026.34;4985197;28;20499;-51
2023/10/08 06:20:48;;;;;;;0.40;0.20;;;;;;;14.96;100.00;101021.63;4996045;28;20457;-51
2023/10/08 06:23:20;;;;;;;0.40;0.20;;;;;;;15.04;100.00;101030.25;4996145;28;20449;-52
2023/10/08 06:25:54;;;;;;;0.40;0.20;;;;;;;15.00;100.00;101028.59;4983962;28;20442;-51
2023/10/08 06:28:20;;;;;;;0.40;0.20;;;;;;;15.13;100.00;101047.81;4972406;28;20472;-51
2023/10/08 06:30:48;;;;;;;0.40;0.20;;;;;;;15.11;100.00;101066.59;4995843;28;20507;-51
2023/10/08 06:33:16;;;;;;;0.40;0.20;;;;;;;15.27;100.00;101066.94;4982378;28;20455;-52
2023/10/08 06:36:01;;;;;;;0.40;0.20;;;;;;;15.29;100.00;101072.22;4986469;28;20557;-52
2023/10/08 06:38:30;;;;;;;0.40;0.20;;;;;;;15.30;100.00;101082.88;4974731;28;20501;-52
2023/10/08 06:41:08;;;;;;;0.40;0.20;;;;;;;15.33;100.00;101082.78;4987891;28;20501;-51
2023/10/08 06:43:38;;;;;;;0.40;0.20;;;;;;;15.31;100.00;101094.47;4980045;28;20455;-52
2023/10/08 06:46:12;;;;;;;0.40;0.20;;;;;;;15.41;100.00;101087.88;4970194;28;20460;-52
2023/10/08 06:48:43;;;;;;;0.40;0.20;;;;;;;15.46;100.00;101085.03;4995622;28;20466;-51
2023/10/08 06:51:12;;;;;;;0.40;0.20;;;;;;;15.51;100.00;101096.47;4995771;28;20445;-51
2023/10/08 06:53:40;;;;;;;0.40;0.20;;;;;;;15.64;100.00;101108.53;4985959;28;20545;-52
2023/10/08 06:56:09;;;;;;;0.40;0.20;;;;;;;15.72;100.00;101095.69;4977569;28;20967;-51
2023/10/08 06:58:36;;;;;;;0.40;0.20;;;;;;;15.85;100.00;101104.16;4960347;28;20530;-51
2023/10/08 07:01:04;;;;;;;0.40;0.20;;;;;;;15.99;100.00;101102.72;4992627;28;20872;-52
2023/10/08 07:03:33;;;;;;;3.03;2.93;;;;;;;16.19;100.00;101098.41;4991766;28;20799;-51
2023/10/08 07:06:02;;;;;;;0.40;0.20;;;;;;;16.30;100.00;101106.91;4977785;28;20990;-51
2023/10/08 07:08:35;;;;;;;0.40;0.20;;;;;;;16.43;100.00;101115.34;4995169;28;20459;-51
2023/10/08 07:11:06;;;;;;;0.40;0.20;;;;;;;16.58;98.70;101110.25;4982434;28;20471;-51
2023/10/08 07:13:35;;;;;;;0.40;0.20;;;;;;;16.70;98.55;101111.59;4981583;28;20449;-52
2023/10/08 07:16:04;;;;;;;0.40;0.20;;;;;;;16.83;97.11;101101.22;4979350;28;20429;-52
2023/10/08 07:18:33;;;;;;;0.40;0.20;;;;;;;16.93;96.88;101097.22;4976923;28;20493;-52
2023/10/08 07:21:00;;;;;;;0.40;0.20;;;;;;;16.97;96.68;101106.00;4986644;28;20432;-51
2023/10/08 07:23:34;;;;;;;0.40;0.20;;;;;;;17.17;96.17;101103.38;4986569;28;20460;-52
2023/10/08 07:26:10;;;;;;;0.40;0.20;;;;;;;17.25;95.14;101108.41;4993012;28;20989;-51
2023/10/08 07:28:41;;;;;;;0.40;0.30;;;;;;;17.00;96.22;101116.66;4987147;28;20979;-52
2023/10/08 07:31:18;;;;;;;0.40;0.20;;;;;;;16.94;96.04;101119.56;4980627;28;21040;-52
2023/10/08 07:33:47;;;;;;;0.40;0.20;;;;;;;17.15;95.55;101110.63;4986438;28;20457;-52
2023/10/08 07:36:18;;;;;;;0.40;0.20;;;;;;;17.41;93.96;101115.75;4981876;28;20530;-52
2023/10/08 07:38:44;;;;;;;0.40;0.20;;;;;;;17.36;94.59;101111.50;4994839;28;20487;-52
2023/10/08 07:41:12;;;;;;;0.40;0.20;;;;;;;17.23;94.69;101121.03;4976194;28;20777;-52
2023/10/08 07:43:39;;;;;;;0.40;0.30;;;;;;;17.34;94.57;101111.56;4992523;28;20451;-52
2023/10/08 07:46:06;;;;;;;0.40;0.20;;;;;;;17.40;95.56;101115.78;4969043;28;20434;-52
2023/10/08 07:48:32;;;;;;;0.40;0.20;;;;;;;17.37;95.63;101126.69;4994834;28;20477;-52
2023/10/08 07:50:59;;;;;;;0.40;0.20;;;;;;;17.39;94.64;101128.38;4982082;28;20926;-52
2023/10/08 07:53:37;;;;;;;0.40;0.20;;;;;;;17.24;95.56;101129.03;4970845;28;20455;-52
2023/10/08 07:56:08;;;;;;;0.40;0.20;;;;;;;17.26;95.18;101135.19;4968666;28;20447;-52
2023/10/08 07:58:38;;;;;;;0.40;0.20;;;;;;;17.12;95.41;101137.59;4981678;28;20549;-52
2023/10/08 08:01:09;;;;;;;0.40;0.20;;;;;;;17.27;95.08;101142.34;4992778;28;20511;-52
2023/10/08 08:03:36;;;;;;;0.40;0.20;;;;;;;17.36;94.24;101143.75;4982785;28;20432;-52
2023/10/08 08:06:06;;;;;;;0.40;0.20;;;;;;;17.52;93.05;101149.34;4957432;28;20951;-52
2023/10/08 08:08:34;;;;;;;0.40;0.20;;;;;;;17.81;93.19;101156.16;4974512;28;20447;-53
2023/10/08 08:11:05;;;;;;;0.40;0.20;;;;;;;17.84;91.88;101147.97;4982761;28;20429;-52
2023/10/08 08:13:33;;;;;;;0.40;0.20;;;;;;;17.78;91.40;101149.09;4971822;28;21022;-52
2023/10/08 08:16:09;;;;;;;0.40;0.20;;;;;;;17.71;91.47;101153.03;4986668;28;20456;-52
2023/10/08 08:18:37;;;;;;;0.40;0.20;;;;;;;17.68;92.86;101150.41;4978313;28;20489;-52
2023/10/08 08:21:04;;;;;;;0.40;0.20;;;;;;;17.98;92.29;101153.59;4960888;28;20541;-52
2023/10/08 08:23:31;;;;;;;0.40;0.20;;;;;;;18.04;91.81;101146.13;4959893;28;20835;-51
2023/10/08 08:28:51;;;;;;;0.40;0.20;;;;;;;18.15;91.92;101150.13;4965714;28;20509;-52
2023/10/08 08:31:19;;;;;;;0.40;0.20;;;;;;;18.25;90.47;101140.69;4971192;28;20432;-51
2023/10/08 08:33:59;;;;;;;0.40;0.20;;;;;;;18.32;90.83;101147.53;4971112;28;20486;-52
2023/10/08 08:36:27;;;;;;;0.40;0.20;;;;;;;18.28;92.18;101159.38;4969600;28;20969;-52
2023/10/08 08:38:54;;;;;;;0.40;0.20;;;;;;;18.33;90.48;101157.34;4993347;28;20468;-52
2023/10/08 08:41:22;;;;;;;0.40;0.20;;;;;;;18.27;90.41;101153.13;4982736;28;20467;-52
2023/10/08 08:43:59;;;;;;;0.40;0.20;;;;;;;18.48;89.86;101148.53;4982730;28;20520;-52
2023/10/08 08:46:31;;;;;;;0.40;0.30;;;;;;;18.50;90.82;101145.78;4974704;28;20436;-52
2023/10/08 08:49:03;;;;;;;0.40;0.20;;;;;;;18.66;90.83;101151.34;4982873;28;20818;-52
2023/10/08 08:51:30;;;;;;;0.40;0.20;;;;;;;18.47;91.45;101149.50;4972852;28;20425;-54
2023/10/08 08:54:00;;;;;;;0.40;0.20;;;;;;;18.66;89.63;101149.53;4987196;28;20438;-52
2023/10/08 08:56:30;;;;;;;0.40;0.20;;;;;;;18.68;90.19;101150.31;4975889;28;20508;-51
2023/10/08 08:58:59;;;;;;;0.40;0.20;;;;;;;18.86;89.31;101159.31;4974479;28;20825;-53
2023/10/08 09:01:26;;;;;;;0.40;0.20;;;;;;;19.03;88.88;101162.06;4970515;28;20447;-52
2023/10/08 09:04:00;;;;;;;0.40;0.20;;;;;;;19.09;88.46;101163.59;4993297;28;20428;-53
2023/10/08 09:06:27;;;;;;;0.40;0.20;;;;;;;19.41;87.68;101168.22;4992957;28;20844;-53
2023/10/08 09:08:55;;;;;;;0.40;0.20;;;;;;;19.15;87.36;101147.09;4992909;28;21005;-53
2023/10/08 09:11:22;;;;;;;0.40;0.20;;;;;;;19.25;87.97;101140.31;4978589;28;20511;-52
2023/10/08 09:13:48;;;;;;;0.40;0.20;;;;;;;19.45;87.62;101142.81;4979938;28;20499;-53
2023/10/08 09:16:16;;;;;;;0.40;0.20;;;;;;;19.56;87.77;101138.75;4987921;28;20432;-52
2023/10/08 09:18:45;;;;;;;0.40;0.20;;;;;;;19.59;87.48;101144.84;4985520;28;20497;-53
2023/10/08 09:21:19;;;;;;;0.40;0.20;;;;;;;19.60;87.00;101140.31;4992872;28;20432;-53
2023/10/08 09:23:54;;;;;;;0.40;0.20;;;;;;;19.62;87.02;101138.44;4992853;28;20481;-53
2023/10/08 09:26:25;;;;;;;0.40;0.20;;;;;;;19.73;85.67;101139.59;4993190;28;20544;-53
2023/10/08 09:28:53;;;;;;;0.40;0.20;;;;;;;20.00;84.79;101139.06;4993104;28;20465;-53
2023/10/08 09:31:23;;;;;;;0.40;0.20;;;;;;;20.17;84.08;101128.25;4992903;28;20468;-54
2023/10/08 09:33:56;;;;;;;0.40;0.20;;;;;;;20.23;82.22;101133.28;4992436;28;20417;-54
2023/10/08 09:36:31;;;;;;;0.40;0.20;;;;;;;20.26;81.82;101145.75;4967101;28;20457;-54
2023/10/08 09:39:06;;;;;;;0.40;0.20;;;;;;;20.39;81.46;101158.50;4992893;28;20571;-53
2023/10/08 09:41:33;;;;;;;0.40;0.20;;;;;;;20.25;80.97;101161.09;4993142;28;20504;-54
2023/10/08 09:44:00;;;;;;;0.40;0.20;;;;;;;20.62;79.88;101153.69;4992356;28;20421;-54
2023/10/08 09:46:36;;;;;;;0.40;0.20;;;;;;;20.50;78.95;101155.22;4993116;28;20549;-54
2023/10/08 09:49:07;;;;;;;0.40;0.20;;;;;;;20.74;79.54;101152.13;4992539;28;20444;-53
2023/10/08 09:51:39;;;;;;;0.40;0.20;;;;;;;20.82;79.20;101141.72;4993124;28;20453;-53
2023/10/08 09:54:20;;;;;;;0.40;0.20;;;;;;;20.93;78.84;101137.44;4992855;28;20937;-52
2023/10/08 09:56:47;;;;;;;0.40;0.20;;;;;;;21.09;78.08;101141.94;4992874;28;20445;-53
2023/10/08 09:59:15;;;;;;;0.50;0.37;;;;;;;21.24;77.28;101138.34;4992852;28;20988;-52
2023/10/08 10:01:43;;;;;;;0.40;0.20;;;;;;;20.85;78.61;101141.56;4992511;28;20910;-53
2023/10/08 10:04:11;;;;;;;0.40;0.20;;;;;;;21.14;77.78;101140.72;4992827;28;20461;-54
2023/10/08 10:06:43;;;;;;;0.40;0.20;;;;;;;21.39;76.27;101134.78;4992579;28;21161;-52
2023/10/08 10:09:21;;;;;;;0.40;0.20;;;;;;;21.74;75.36;101138.03;4992549;28;20516;-52
2023/10/08 10:11:52;;;;;;;0.40;0.20;;;;;;;21.56;74.39;101131.91;4974726;28;20459;-51
2023/10/08 10:14:24;;;;;;;0.40;0.20;;;;;;;21.71;74.62;101130.09;4979595;28;20568;-52
2023/10/08 10:17:14;;;;;;;0.40;0.20;;;;;;;21.87;73.40;101136.31;4991851;28;20461;-53
2023/10/08 10:20:00;;;;;;;0.40;0.20;;;;;;;22.04;73.56;101127.13;4978404;28;20612;-53
2023/10/08 10:22:35;;;;;;;0.40;0.20;;;;;;;22.07;72.13;101128.81;4980386;28;20484;-53
2023/10/08 10:25:14;;;;;;;0.40;0.20;;;;;;;22.05;73.15;101133.41;4967595;28;20448;-53
2023/10/08 10:27:51;;;;;;;0.40;0.20;;;;;;;22.02;71.91;101134.47;4992180;28;20785;-52
2023/10/08 10:30:19;;;;;;;0.40;0.20;;;;;;;22.22;72.00;101140.53;4992638;28;20424;-53
2023/10/08 10:32:53;;;;;;;0.40;0.20;;;;;;;21.94;71.52;101144.06;4992260;28;20910;-52
2023/10/08 10:35:20;;;;;;;0.40;0.20;;;;;;;21.96;71.79;101144.84;4992594;28;20431;-52
2023/10/08 10:37:51;;;;;;;0.40;0.20;;;;;;;22.34;70.95;101147.84;4992227;28;20513;-53
2023/10/08 10:40:43;;;;;;;0.40;0.20;;;;;;;22.31;69.82;101153.47;4992509;28;20469;-52
2023/10/08 10:43:09;;;;;;;0.40;0.20;;;;;;;22.24;69.79;101158.41;4972495;28;20436;-53
2023/10/08 10:45:36;;;;;;;0.40;0.20;;;;;;;22.08;70.24;101155.81;4981601;28;20496;-53
2023/10/08 10:48:21;;;;;;;0.50;0.50;;;;;;;21.98;68.98;101151.03;4995898;28;20498;-53
2023/10/08 10:53:33;;;;;;;0.40;0.20;;;;;;;22.31;70.00;101151.63;4995664;28;20456;-53
2023/10/08 10:56:09;;;;;;;0.40;0.20;;;;;;;22.37;69.81;101142.25;4995886;28;20420;-52
2023/10/08 10:58:39;;;;;;;0.47;0.20;;;;;;;22.39;69.61;101137.59;4995589;28;20467;-53
2023/10/08 11:01:07;;;;;;;0.40;0.20;;;;;;;22.60;68.63;101141.63;4995699;28;20854;-53
2023/10/08 11:03:34;;;;;;;0.40;0.20;;;;;;;22.58;68.54;101148.97;4995317;28;20434;-52
2023/10/08 11:06:15;;;;;;;0.40;0.20;;;;;;;22.76;68.60;101144.22;4984504;28;20436;-54
2023/10/08 11:08:46;;;;;;;0.40;0.20;;;;;;;22.53;67.71;101148.41;4969338;28;20448;-53
2023/10/08 11:11:15;;;;;;;0.40;0.20;;;;;;;22.50;68.19;101155.88;4982141;28;20526;-53
2023/10/08 11:13:41;;;;;;;0.40;0.20;;;;;;;22.90;68.48;101151.47;4982071;28;20472;-53
2023/10/08 11:16:13;;;;;;;0.40;0.30;;;;;;;23.04;67.58;101156.84;4989311;28;20428;-54
2023/10/08 11:18:50;;;;;;;0.40;0.20;;;;;;;22.57;67.80;101162.63;4987300;28;20525;-53
2023/10/08 11:21:22;;;;;;;0.50;0.20;;;;;;;22.69;68.50;101157.28;4995220;28;20533;-52
2023/10/08 11:23:53;;;;;;;0.40;0.20;;;;;;;22.88;67.53;101161.53;4995073;28;20510;-54
2023/10/08 11:26:31;;;;;;;0.47;0.20;;;;;;;23.12;67.82;101156.31;4994872;28;20503;-53
2023/10/08 11:29:03;;;;;;;0.40;0.20;;;;;;;23.32;67.18;101162.16;4994875;28;20436;-54
2023/10/08 11:31:33;;;;;;;0.40;0.20;;;;;;;23.39;66.45;101161.72;4994791;28;20536;-54
2023/10/08 11:34:01;;;;;;;0.40;0.20;;;;;;;23.43;66.70;101157.81;4995033;28;20516;-54
2023/10/08 11:36:29;;;;;;;0.40;0.20;;;;;;;23.15;67.33;101156.97;4995035;28;20523;-54
2023/10/08 11:39:06;;;;;;;0.40;0.30;;;;;;;23.33;66.99;101160.31;4994467;28;20468;-53
2023/10/08 11:41:49;;;;;;;0.40;0.30;;;;;;;23.28;66.76;101148.88;4994619;28;20814;-52
2023/10/08 11:44:19;;;;;;;0.40;0.20;;;;;;;22.90;67.64;101140.63;4994559;28;20457;-53
2023/10/08 11:46:51;;;;;;;0.40;0.20;;;;;;;22.95;67.86;101141.19;4976883;28;20455;-52
2023/10/08 11:49:19;;;;;;;0.47;0.20;;;;;;;23.09;68.01;101130.28;4985409;28;20464;-52
2023/10/08 11:51:46;;;;;;;0.40;0.20;;;;;;;23.37;66.81;101133.84;4981689;28;20487;-53
2023/10/08 11:54:14;;;;;;;0.40;0.20;;;;;;;23.55;66.80;101147.00;4968767;28;20867;-53
2023/10/08 11:56:41;;;;;;;0.40;0.20;;;;;;;23.78;66.71;101147.28;4993704;28;20458;-52
2023/10/08 11:59:11;;;;;;;0.40;0.20;;;;;;;23.31;66.63;101141.44;4994189;28;20580;-52
2023/10/08 12:01:42;;;;;;;0.50;0.20;;;;;;;23.60;66.70;101136.75;4994244;28;20424;-53
2023/10/08 12:04:12;;;;;;;0.50;0.23;;;;;;;23.37;66.10;101131.13;4994399;28;20481;-53
2023/10/08 12:06:46;;;;;;;0.40;0.20;;;;;;;23.55;65.96;101127.13;4993956;28;20424;-53
2023/10/08 12:09:14;;;;;;;0.40;0.20;;;;;;;23.81;66.92;101123.50;4993993;28;20481;-52
2023/10/08 12:11:40;;;;;;;0.40;0.20;;;;;;;23.78;64.63;101131.88;4977358;28;20428;-53
2023/10/08 12:14:07;;;;;;;0.40;0.20;;;;;;;23.78;65.69;101126.44;4985277;28;20901;-50
2023/10/08 12:16:36;;;;;;;0.50;0.30;;;;;;;23.99;66.20;101120.47;4993874;28;20461;-50
2023/10/08 12:19:15;;;;;;;0.50;0.20;;;;;;;23.99;64.62;101115.03;4986190;28;20504;-51
2023/10/08 12:21:46;;;;;;;0.50;0.20;;;;;;;23.68;65.22;101109.03;4994035;28;20496;-50
2023/10/08 12:24:12;;;;;;;0.50;0.20;;;;;;;24.16;64.54;101111.97;4993834;28;21014;-50
2023/10/08 12:26:45;;;;;;;0.40;0.20;;;;;;;24.09;65.84;101102.50;4993824;28;20461;-50
2023/10/08 12:29:14;;;;;;;0.50;0.30;;;;;;;24.01;65.69;101108.53;4993720;28;20518;-50
2023/10/08 12:31:41;;;;;;;0.50;0.27;;;;;;;24.13;65.12;101104.91;4993686;28;20533;-50
2023/10/08 12:34:11;;;;;;;0.50;0.20;;;;;;;23.74;65.43;101100.47;4993851;28;20540;-53
2023/10/08 12:36:38;;;;;;;0.40;0.20;;;;;;;23.97;66.05;101104.25;4993852;28;20453;-52
2023/10/08 12:39:17;;;;;;;0.40;0.20;;;;;;;23.99;66.30;101096.91;4993781;28;20580;-53
2023/10/08 12:41:44;;;;;;;0.50;0.20;;;;;;;24.04;66.13;101092.00;4993551;28;20857;-53
2023/10/08 12:44:12;;;;;;;0.50;0.30;;;;;;;23.72;66.33;101102.44;4992308;28;20459;-54
2023/10/08 12:46:39;;;;;;;0.50;0.20;;;;;;;24.06;65.08;101105.47;4993722;28;20532;-54
2023/10/08 12:49:06;;;;;;;0.50;0.30;;;;;;;23.98;66.51;101107.84;4993493;28;20598;-54
2023/10/08 12:51:33;;;;;;;0.50;0.30;;;;;;;23.90;64.74;101109.28;4993497;28;20461;-53
2023/10/08 12:54:06;;;;;;;0.40;0.20;;;;;;;24.24;64.33;101106.84;4993133;28;20903;-53
2023/10/08 12:56:58;;;;;;;0.43;0.20;;;;;;;24.19;64.44;101096.31;4993277;28;20493;-54